Pleasant View, Illinois
Current Conditions -  °F | °C
As of 8:35 PM on Friday 24 Oct 2014 (Local Time) from KMQB Reporting Station
Clear Clear  
Wind Chill: 57°   Ceiling: Unl
Heat Index: 57°   Visibility: 10mi
Dew Point: 51°   Wind: 3mph
Humidity: 82%   Direction: 160°SSE
Pressure: 29.97"   Gusts: NA
Location:  40.1451°N, 90.5648°W
Report Text: KMQB 250135Z AUTO 16003KT 10SM CLR 14/11 A2997 RMK AO2 T01370106
Loading
Personal Weather Stations






























Interactive Weather Map
Tropical Storm Tracking
New forecast layout! Learn more

10-Day Weather Forecast

Advertisements
Track Severe Weather on mobile